createdAt,value
2022-12-18T00:01:22.795Z,33.33
2022-12-18T00:04:27.591Z,33.10
2022-12-18T00:07:30.023Z,36.85
2022-12-18T00:10:34.315Z,32.85
2022-12-18T00:13:38.300Z,34.53
2022-12-18T00:16:45.110Z,36.03
2022-12-18T00:19:48.409Z,37.95
2022-12-18T00:22:51.899Z,36.75
2022-12-18T00:25:54.898Z,39.90
2022-12-18T00:29:01.989Z,37.72
2022-12-18T00:32:07.086Z,35.50
2022-12-18T00:35:10.191Z,38.77
2022-12-18T00:38:13.058Z,37.33
2022-12-18T00:41:38.967Z,39.15
2022-12-18T00:44:42.240Z,35.45
2022-12-18T00:47:45.053Z,35.50
2022-12-18T00:50:49.918Z,35.75
2022-12-18T00:53:53.582Z,34.30
2022-12-18T00:56:56.698Z,36.93
2022-12-18T00:59:59.700Z,36.50
2022-12-18T01:03:02.646Z,36.50
2022-12-18T01:06:08.474Z,37.15
2022-12-18T01:09:11.080Z,36.17
2022-12-18T01:12:14.141Z,35.90
2022-12-18T01:15:18.879Z,33.33
2022-12-18T01:18:21.811Z,33.17
2022-12-18T01:21:25.408Z,38.38
2022-12-18T01:24:29.223Z,36.80
2022-12-18T01:27:32.045Z,30.52
2022-12-18T01:30:36.096Z,40.53
2022-12-18T01:33:40.450Z,32.55
2022-12-18T01:36:43.934Z,35.63
2022-12-18T01:39:46.786Z,30.97
2022-12-18T01:42:54.207Z,32.75
2022-12-18T01:46:00.791Z,34.00
2022-12-18T01:49:04.221Z,32.07
2022-12-18T01:52:07.296Z,33.97
2022-12-18T01:55:14.761Z,31.52
2022-12-18T01:58:20.405Z,36.38
2022-12-18T02:01:25.665Z,37.70
2022-12-18T02:04:31.029Z,30.55
2022-12-18T02:08:09.124Z,35.42
2022-12-18T02:11:25.755Z,39.70
2022-12-18T02:14:49.508Z,33.97
2022-12-18T02:17:59.587Z,32.47
2022-12-18T02:21:14.911Z,32.33
2022-12-18T02:24:23.469Z,31.90
2022-12-18T02:27:28.809Z,32.33
2022-12-18T02:30:36.345Z,36.60
2022-12-18T02:33:40.694Z,33.63
2022-12-18T02:36:46.916Z,39.33
2022-12-18T02:39:53.560Z,33.08
2022-12-18T02:43:07.741Z,37.00
2022-12-18T02:46:35.048Z,32.22
2022-12-18T02:49:57.268Z,30.85
2022-12-18T02:53:17.608Z,42.78
2022-12-18T02:56:27.797Z,35.70
2022-12-18T02:59:40.028Z,33.90
2022-12-18T03:02:54.100Z,38.90
2022-12-18T03:06:16.215Z,30.95
2022-12-18T03:09:28.019Z,33.10
2022-12-18T03:12:35.587Z,30.40
2022-12-18T03:15:43.477Z,30.02
2022-12-18T03:18:58.899Z,30.83
2022-12-18T03:22:05.884Z,32.55
2022-12-18T03:25:13.868Z,35.60
2022-12-18T03:28:22.226Z,35.07
2022-12-18T03:31:28.763Z,34.53
2022-12-18T03:34:38.314Z,37.92
2022-12-18T03:37:41.931Z,32.95
2022-12-18T03:40:54.102Z,35.28
2022-12-18T03:44:14.404Z,32.65
2022-12-18T03:47:26.738Z,34.47
2022-12-18T03:50:47.920Z,35.87
2022-12-18T03:54:01.639Z,39.38
2022-12-18T03:57:26.188Z,34.75
2022-12-18T04:00:32.855Z,33.67
2022-12-18T04:03:39.358Z,38.83
2022-12-18T04:06:44.817Z,31.10
2022-12-18T04:09:50.105Z,34.28
2022-12-18T04:12:58.213Z,29.90
2022-12-18T04:16:02.476Z,35.00
2022-12-18T04:19:05.845Z,40.95
2022-12-18T04:22:11.499Z,39.07
2022-12-18T04:25:15.343Z,35.00
2022-12-18T04:28:23.276Z,34.35
2022-12-18T04:31:26.178Z,39.07
2022-12-18T04:34:30.135Z,41.85
2022-12-18T04:37:33.738Z,37.95
2022-12-18T04:40:38.184Z,37.47
2022-12-18T04:43:41.784Z,31.90
2022-12-18T04:46:45.394Z,36.30
2022-12-18T04:49:49.378Z,33.25
2022-12-18T04:52:52.677Z,37.97
2022-12-18T04:56:10.678Z,38.72
2022-12-18T04:59:14.532Z,35.35
2022-12-18T05:02:17.188Z,35.23
2022-12-18T05:05:20.660Z,33.45
2022-12-18T05:08:25.637Z,35.22
2022-12-18T05:11:28.515Z,34.95
2022-12-18T05:14:31.341Z,34.58
2022-12-18T05:17:34.160Z,40.12
2022-12-18T05:20:37.255Z,33.97
2022-12-18T05:23:40.836Z,34.67
2022-12-18T05:26:44.191Z,43.65
2022-12-18T05:29:47.985Z,38.47
2022-12-18T05:32:50.640Z,41.43
2022-12-18T05:35:56.245Z,38.63
2022-12-18T05:38:59.207Z,34.00
2022-12-18T05:42:03.487Z,36.80
2022-12-18T05:45:08.730Z,36.78
2022-12-18T05:48:13.040Z,39.10
2022-12-18T05:51:24.935Z,34.75
2022-12-18T05:54:32.144Z,34.00
2022-12-18T05:57:35.125Z,43.17
2022-12-18T06:00:42.778Z,42.13
2022-12-18T06:03:46.655Z,34.87
2022-12-18T06:06:50.475Z,39.30
2022-12-18T06:09:53.772Z,38.53
2022-12-18T06:12:56.427Z,36.45
2022-12-18T06:16:07.152Z,35.67
2022-12-18T06:19:18.190Z,42.72
2022-12-18T06:22:21.689Z,38.58
2022-12-18T06:25:26.586Z,38.40
2022-12-18T06:28:32.846Z,46.70
2022-12-18T06:31:36.465Z,39.30
2022-12-18T06:34:39.886Z,48.90
2022-12-18T06:37:43.148Z,42.33
2022-12-18T06:40:51.646Z,42.90
2022-12-18T06:43:59.342Z,40.40
2022-12-18T06:47:04.862Z,35.65
2022-12-18T06:50:12.193Z,38.00
2022-12-18T06:53:15.977Z,40.88
2022-12-18T06:56:20.145Z,46.50
2022-12-18T06:59:23.088Z,44.47
2022-12-18T07:02:27.896Z,46.40
2022-12-18T07:05:34.065Z,42.17
2022-12-18T07:08:39.004Z,50.05
2022-12-18T07:11:46.859Z,55.05
2022-12-18T07:14:50.189Z,55.75
2022-12-18T07:17:56.175Z,56.63
2022-12-18T07:21:05.565Z,44.63
2022-12-18T07:24:16.946Z,48.25
2022-12-18T07:27:21.169Z,50.97
2022-12-18T07:30:25.003Z,50.65
2022-12-18T07:33:32.896Z,55.30
2022-12-18T07:36:36.335Z,57.58
2022-12-18T07:39:50.063Z,55.08
2022-12-18T07:42:55.763Z,49.23
2022-12-18T07:46:01.072Z,42.88
2022-12-18T07:49:06.878Z,53.28
2022-12-18T07:52:10.676Z,64.22
2022-12-18T07:55:13.496Z,50.40
2022-12-18T07:58:24.799Z,50.80
2022-12-18T08:01:40.944Z,46.25
2022-12-18T08:04:55.910Z,48.55
2022-12-18T08:08:03.670Z,56.78
2022-12-18T08:11:10.015Z,50.22
2022-12-18T08:14:13.309Z,49.30
2022-12-18T08:17:17.561Z,46.47
2022-12-18T08:20:27.891Z,45.05
2022-12-18T08:23:32.012Z,43.87
2022-12-18T08:26:40.059Z,48.20
2022-12-18T08:29:46.478Z,43.80
2022-12-18T08:33:02.008Z,45.90
2022-12-18T08:36:06.626Z,46.50
2022-12-18T08:39:14.057Z,43.38
2022-12-18T08:42:37.530Z,43.50
2022-12-18T08:45:43.037Z,45.97
2022-12-18T08:48:57.183Z,46.90
2022-12-18T08:52:01.087Z,47.08
2022-12-18T08:55:04.535Z,50.53
2022-12-18T08:58:08.901Z,44.53
2022-12-18T09:01:17.525Z,43.73
2022-12-18T09:04:30.749Z,49.47
2022-12-18T09:07:38.434Z,44.63
2022-12-18T09:10:53.845Z,47.97
2022-12-18T09:13:58.956Z,40.42
2022-12-18T09:17:09.484Z,41.10
2022-12-18T09:20:15.022Z,44.30
2022-12-18T09:23:20.835Z,42.60
2022-12-18T09:26:36.893Z,41.55
2022-12-18T09:29:54.064Z,41.22
2022-12-18T09:33:04.370Z,39.57
2022-12-18T09:36:11.847Z,43.00
2022-12-18T09:39:16.143Z,47.72
2022-12-18T09:42:23.268Z,45.80
2022-12-18T09:45:30.247Z,46.30
2022-12-18T09:48:51.791Z,41.93
2022-12-18T09:52:09.716Z,37.97
2022-12-18T09:55:41.309Z,43.63
2022-12-18T09:59:04.790Z,43.55
2022-12-18T10:02:20.178Z,46.95
2022-12-18T10:05:49.163Z,51.47
2022-12-18T10:08:58.138Z,47.37
2022-12-18T10:12:24.881Z,51.75
2022-12-18T10:15:35.282Z,53.25
2022-12-18T10:19:00.853Z,51.10
2022-12-18T10:22:21.873Z,57.47
2022-12-18T10:25:37.880Z,51.20
2022-12-18T10:28:46.854Z,48.08
2022-12-18T10:31:51.156Z,44.53
2022-12-18T10:35:02.376Z,42.62
2022-12-18T10:38:18.022Z,44.20
2022-12-18T10:41:27.537Z,47.30
2022-12-18T10:44:38.776Z,38.92
2022-12-18T10:47:55.768Z,38.08
2022-12-18T10:51:12.107Z,37.45
2022-12-18T10:54:34.036Z,41.37
2022-12-18T10:57:42.804Z,43.58
2022-12-18T11:00:45.655Z,45.45
2022-12-18T11:04:01.663Z,37.63
2022-12-18T11:07:12.352Z,41.45
2022-12-18T11:10:20.586Z,44.23
2022-12-18T11:13:29.099Z,45.28
2022-12-18T11:17:03.035Z,46.17
2022-12-18T11:20:30.232Z,47.08
2022-12-18T11:23:40.994Z,43.83
2022-12-18T11:26:45.467Z,44.90
2022-12-18T11:29:56.810Z,42.05
2022-12-18T11:33:19.907Z,49.55
2022-12-18T11:36:26.882Z,46.25
2022-12-18T11:39:42.168Z,42.10
2022-12-18T11:43:09.928Z,46.10
2022-12-18T11:46:21.578Z,40.45
2022-12-18T11:49:36.281Z,41.92
2022-12-18T11:52:41.588Z,40.45
2022-12-18T11:56:25.861Z,40.25
2022-12-18T11:59:51.863Z,46.90
2022-12-18T12:02:59.161Z,54.15
2022-12-18T12:07:00.064Z,46.13
2022-12-18T12:10:40.035Z,49.40
2022-12-18T12:14:11.855Z,46.88
2022-12-18T12:17:41.779Z,54.73
2022-12-18T12:21:10.891Z,49.92
2022-12-18T12:24:57.762Z,50.97
2022-12-18T12:28:52.834Z,44.80
2022-12-18T12:32:10.505Z,42.90
2022-12-18T12:35:27.062Z,49.50
2022-12-18T12:38:51.425Z,40.30
2022-12-18T12:42:15.785Z,40.67
2022-12-18T12:45:32.823Z,42.55
2022-12-18T12:48:46.817Z,35.88
2022-12-18T12:52:18.899Z,43.00
2022-12-18T12:55:27.944Z,45.17
2022-12-18T12:58:37.911Z,39.83
2022-12-18T13:02:09.913Z,43.78
2022-12-18T13:05:21.981Z,42.35
2022-12-18T13:08:28.138Z,40.97
2022-12-18T13:12:06.919Z,37.78
2022-12-18T13:15:24.790Z,46.05
2022-12-18T13:18:30.214Z,49.22
2022-12-18T13:21:36.767Z,39.70
2022-12-18T13:24:44.511Z,40.23
2022-12-18T13:28:19.914Z,39.95
2022-12-18T13:31:42.352Z,43.00
2022-12-18T13:35:27.843Z,45.40
2022-12-18T13:38:45.035Z,49.47
2022-12-18T13:41:51.405Z,43.83
2022-12-18T13:45:00.000Z,54.92
2022-12-18T13:48:34.701Z,33.72
2022-12-18T13:51:45.638Z,41.00
2022-12-18T13:54:57.492Z,43.55
2022-12-18T13:58:07.126Z,45.23
2022-12-18T14:01:24.684Z,38.58
2022-12-18T14:04:39.795Z,45.15
2022-12-18T14:07:49.229Z,41.20
2022-12-18T14:11:13.818Z,48.47
2022-12-18T14:14:24.888Z,54.73
2022-12-18T14:17:35.012Z,56.17
2022-12-18T14:20:52.602Z,50.58
2022-12-18T14:24:06.028Z,42.95
2022-12-18T14:27:38.746Z,41.37
2022-12-18T14:30:58.917Z,44.30
2022-12-18T14:34:05.958Z,53.65
2022-12-18T14:37:16.870Z,44.85
2022-12-18T14:40:21.979Z,54.85
2022-12-18T14:43:30.063Z,49.93
2022-12-18T14:46:52.736Z,49.97
2022-12-18T14:53:33.040Z,42.35
2022-12-18T14:56:46.848Z,44.57
2022-12-18T14:59:54.336Z,48.28
2022-12-18T15:03:01.257Z,53.78
2022-12-18T15:06:27.577Z,66.45
2022-12-18T15:10:21.834Z,68.68
2022-12-18T15:13:26.251Z,64.50
2022-12-18T15:16:30.490Z,69.30
2022-12-18T15:19:41.724Z,68.72
2022-12-18T15:22:52.171Z,85.17
2022-12-18T15:26:10.009Z,84.22
2022-12-18T15:29:31.830Z,78.25
2022-12-18T15:32:50.812Z,81.00
2022-12-18T15:36:06.568Z,73.33
2022-12-18T15:39:14.243Z,70.90
2022-12-18T15:42:36.619Z,70.10
2022-12-18T15:45:56.080Z,72.47
2022-12-18T15:49:02.477Z,77.33
2022-12-18T15:52:08.316Z,86.78
2022-12-18T15:55:37.003Z,85.45
2022-12-18T16:02:16.984Z,87.05
2022-12-18T16:05:21.672Z,89.65
2022-12-18T16:08:43.084Z,81.57
2022-12-18T16:11:51.757Z,85.63
2022-12-18T16:14:59.837Z,88.47
2022-12-18T16:18:13.329Z,86.05
2022-12-18T16:21:17.222Z,81.65
2022-12-18T16:24:37.241Z,86.30
2022-12-18T16:27:46.722Z,87.88
2022-12-18T16:30:54.171Z,93.72
2022-12-18T16:34:40.785Z,91.10
2022-12-18T16:41:37.712Z,95.43
2022-12-18T16:44:45.759Z,81.00
2022-12-18T16:47:52.892Z,81.63
2022-12-18T16:51:03.967Z,85.10
2022-12-18T16:54:27.767Z,101.20
2022-12-18T16:57:31.893Z,104.20
2022-12-18T17:00:43.000Z,98.47
2022-12-18T17:03:56.660Z,105.90
2022-12-18T17:07:13.046Z,97.80
2022-12-18T17:10:17.322Z,100.33
2022-12-18T17:13:25.560Z,90.03
2022-12-18T17:16:29.851Z,77.10
2022-12-18T17:19:40.754Z,85.35
2022-12-18T17:22:43.984Z,74.35
2022-12-18T17:25:57.875Z,82.68
2022-12-18T17:29:06.044Z,76.20
2022-12-18T17:32:12.748Z,66.63
2022-12-18T17:35:16.446Z,64.97
2022-12-18T17:38:23.991Z,67.43
2022-12-18T17:41:33.240Z,59.70
2022-12-18T17:44:37.645Z,82.22
2022-12-18T17:47:40.860Z,82.57
2022-12-18T17:50:47.668Z,81.65
2022-12-18T17:53:57.385Z,82.47
2022-12-18T17:57:14.672Z,83.70
2022-12-18T18:00:21.929Z,76.35
2022-12-18T18:03:27.124Z,83.60
2022-12-18T18:06:38.996Z,90.20
2022-12-18T18:09:48.109Z,79.07
2022-12-18T18:13:14.254Z,88.50
2022-12-18T18:16:22.977Z,78.30
2022-12-18T18:19:32.925Z,75.22
2022-12-18T18:22:40.867Z,77.32
2022-12-18T18:25:53.634Z,80.03
2022-12-18T18:29:07.867Z,70.32
2022-12-18T18:32:19.758Z,68.25
2022-12-18T18:35:52.399Z,68.70
2022-12-18T18:39:06.685Z,61.75
2022-12-18T18:42:19.663Z,70.80
2022-12-18T18:45:27.972Z,82.62
2022-12-18T18:48:39.749Z,92.10
2022-12-18T18:51:51.822Z,93.82
2022-12-18T18:55:12.046Z,94.30
2022-12-18T18:58:23.329Z,88.77
2022-12-18T19:01:39.816Z,104.32
2022-12-18T19:04:51.972Z,104.55
2022-12-18T19:07:57.761Z,104.47
2022-12-18T19:11:31.745Z,116.68
2022-12-18T19:14:39.451Z,123.40
2022-12-18T19:17:47.437Z,119.30
2022-12-18T19:21:05.629Z,112.82
2022-12-18T19:24:14.123Z,124.20
2022-12-18T19:27:20.948Z,127.35
2022-12-18T19:30:26.528Z,113.53
2022-12-18T19:33:43.676Z,116.03
2022-12-18T19:37:00.150Z,106.12
2022-12-18T19:40:19.788Z,105.73
2022-12-18T19:43:30.708Z,112.20
2022-12-18T19:46:34.602Z,101.87
2022-12-18T19:49:44.347Z,107.93
2022-12-18T19:52:57.010Z,93.20
2022-12-18T19:56:14.887Z,91.93
2022-12-18T19:59:19.482Z,104.18
2022-12-18T20:02:26.866Z,99.57
2022-12-18T20:05:35.800Z,114.88
2022-12-18T20:08:44.160Z,118.87
2022-12-18T20:11:55.858Z,106.03
2022-12-18T20:15:05.701Z,111.45
2022-12-18T20:18:10.900Z,110.90
2022-12-18T20:21:14.860Z,111.88
2022-12-18T20:24:37.752Z,111.40
2022-12-18T20:27:44.892Z,117.65
2022-12-18T20:31:03.045Z,112.57
2022-12-18T20:34:09.492Z,126.90
2022-12-18T20:37:31.718Z,144.10
2022-12-18T20:40:36.649Z,185.20
2022-12-18T20:43:44.700Z,171.73
2022-12-18T20:46:58.048Z,184.00
2022-12-18T20:50:16.700Z,165.70
2022-12-18T20:53:19.757Z,171.30
2022-12-18T20:56:25.188Z,152.75
2022-12-18T20:59:37.683Z,180.68
2022-12-18T21:02:43.828Z,166.82
2022-12-18T21:05:46.866Z,174.40
2022-12-18T21:08:50.849Z,172.95
2022-12-18T21:12:20.954Z,177.40
2022-12-18T21:15:32.885Z,182.77
2022-12-18T21:18:57.949Z,180.68
2022-12-18T21:22:02.725Z,168.00
2022-12-18T21:25:05.872Z,166.40
2022-12-18T21:28:09.443Z,153.12
2022-12-18T21:31:13.879Z,143.73
2022-12-18T21:34:25.610Z,133.70
2022-12-18T21:37:30.525Z,120.80
2022-12-18T21:40:34.918Z,111.12
2022-12-18T21:44:02.817Z,119.70
2022-12-18T21:47:22.188Z,115.90
2022-12-18T21:50:34.749Z,125.05
2022-12-18T21:53:43.063Z,130.80
2022-12-18T21:56:58.670Z,138.88
2022-12-18T22:00:02.271Z,139.43
2022-12-18T22:03:18.771Z,139.23
2022-12-18T22:06:25.790Z,122.62
2022-12-18T22:09:37.654Z,120.67
2022-12-18T22:12:54.867Z,127.78
2022-12-18T22:15:59.213Z,134.50
2022-12-18T22:19:05.723Z,141.47
2022-12-18T22:22:08.397Z,147.02
2022-12-18T22:25:16.124Z,156.75
2022-12-18T22:28:39.663Z,135.43
2022-12-18T22:31:45.891Z,141.00
2022-12-18T22:34:49.196Z,141.43
2022-12-18T22:38:08.621Z,140.02
2022-12-18T22:41:11.752Z,137.93
2022-12-18T22:44:15.007Z,129.55
2022-12-18T22:47:30.068Z,142.52
2022-12-18T22:50:34.894Z,120.67
2022-12-18T22:53:39.005Z,128.32
2022-12-18T22:56:51.646Z,130.55
2022-12-18T22:59:57.888Z,122.15
2022-12-18T23:03:07.430Z,136.75
2022-12-18T23:06:10.587Z,117.80
2022-12-18T23:09:20.853Z,114.03
2022-12-18T23:12:24.012Z,109.93
2022-12-18T23:15:28.157Z,104.95
2022-12-18T23:18:37.466Z,97.72
2022-12-18T23:21:42.519Z,98.93
2022-12-18T23:24:46.641Z,102.55
2022-12-18T23:27:50.863Z,85.95
2022-12-18T23:30:54.077Z,86.90
2022-12-18T23:33:59.297Z,84.90
2022-12-18T23:37:03.912Z,89.90
2022-12-18T23:40:07.813Z,94.87
2022-12-18T23:43:10.435Z,94.00
2022-12-18T23:46:26.090Z,86.35
2022-12-18T23:49:28.771Z,83.18
2022-12-18T23:52:31.930Z,85.37
2022-12-18T23:55:40.915Z,87.82
2022-12-18T23:58:45.451Z,79.00
